createdAt,value
2022-08-19T00:03:49.039Z,2.1
2022-08-19T00:08:53.532Z,1.9
2022-08-19T00:13:57.083Z,2.2
2022-08-19T00:19:01.629Z,2.3
2022-08-19T00:24:06.141Z,2.3
2022-08-19T00:29:09.723Z,2.1
2022-08-19T00:34:14.341Z,1.6
2022-08-19T00:39:18.814Z,1.6
2022-08-19T00:44:26.831Z,1.5
2022-08-19T00:49:26.876Z,1.6
2022-08-19T00:54:31.417Z,1.8
2022-08-19T00:59:58.740Z,1.8
2022-08-19T01:04:39.489Z,2
2022-08-19T01:09:43.064Z,2.1
2022-08-19T01:14:47.606Z,2
2022-08-19T01:19:52.136Z,1.8
2022-08-19T01:24:56.642Z,2
2022-08-19T01:30:00.192Z,2
2022-08-19T01:35:04.719Z,1.9
2022-08-19T01:40:09.569Z,1.9
2022-08-19T01:45:12.811Z,1.3
2022-08-19T01:50:17.333Z,1.5
2022-08-19T01:55:21.868Z,1.5
2022-08-19T02:00:25.383Z,1.5
2022-08-19T02:05:29.981Z,1.5
2022-08-19T02:10:34.463Z,1.5
2022-08-19T02:15:38.042Z,1.4
2022-08-19T02:20:42.573Z,1.4
2022-08-19T02:25:47.111Z,1.4
2022-08-19T02:30:51.602Z,1.4
2022-08-19T02:35:55.147Z,1.3
2022-08-19T02:40:59.723Z,1.4
2022-08-19T02:46:04.253Z,1.4
2022-08-19T02:51:07.800Z,1.4
2022-08-19T02:56:12.448Z,1.4
2022-08-19T03:01:16.949Z,1.4
2022-08-19T03:06:20.419Z,1.3
2022-08-19T03:11:24.979Z,1.3
2022-08-19T03:16:29.454Z,1.2
2022-08-19T03:21:33.030Z,1.1
2022-08-19T03:26:37.573Z,1.1
2022-08-19T03:31:51.097Z,0.8
2022-08-19T03:36:46.636Z,0.8
2022-08-19T03:41:50.194Z,0.8
2022-08-19T03:46:54.703Z,0.9
2022-08-19T03:51:59.238Z,1
2022-08-19T03:57:02.817Z,1
2022-08-19T04:02:07.294Z,0.9
2022-08-19T04:07:11.831Z,0.8
2022-08-19T04:12:15.410Z,0.8
2022-08-19T04:17:19.944Z,0.8
2022-08-19T04:22:24.491Z,0.8
2022-08-19T04:27:27.991Z,0.8
2022-08-19T04:32:32.555Z,0.8
2022-08-19T04:37:37.068Z,0.7
2022-08-19T04:42:41.599Z,0.7
2022-08-19T04:47:49.382Z,0.7
2022-08-19T04:52:49.722Z,0.7
2022-08-19T04:57:54.218Z,0.7
2022-08-19T05:02:57.772Z,0.6
2022-08-19T05:08:02.275Z,0.7
2022-08-19T05:13:06.838Z,0.6
2022-08-19T05:18:10.444Z,0.6
2022-08-19T05:23:18.538Z,0.7
2022-08-19T05:28:18.495Z,0.7
2022-08-19T05:33:23.030Z,0.8
2022-08-19T05:38:27.547Z,0.8
2022-08-19T05:43:31.089Z,0.9
2022-08-19T05:48:35.610Z,1
2022-08-19T05:53:40.166Z,0.9
2022-08-19T05:58:43.692Z,1.2
2022-08-19T06:03:48.239Z,1.1
2022-08-19T06:08:52.784Z,0.9
2022-08-19T06:13:59.649Z,1
2022-08-19T06:19:00.852Z,1
2022-08-19T06:24:05.382Z,1.1
2022-08-19T06:29:09.989Z,1.1
2022-08-19T06:34:13.492Z,1.5
2022-08-19T06:39:17.995Z,1.5
2022-08-19T06:44:22.588Z,1.4
2022-08-19T06:49:26.082Z,1.5
2022-08-19T06:54:31.066Z,1.7
2022-08-19T06:59:35.190Z,2
2022-08-19T07:04:38.718Z,2.8
2022-08-19T07:09:43.266Z,2.7
2022-08-19T07:14:47.782Z,2.1
2022-08-19T07:19:51.316Z,2.6
2022-08-19T07:24:55.882Z,3
2022-08-19T07:30:00.411Z,3.1
2022-08-19T07:35:04.922Z,2.4
2022-08-19T07:40:08.582Z,3.1
2022-08-19T07:45:13.043Z,3.4
2022-08-19T07:50:17.567Z,4.7
2022-08-19T07:55:42.549Z,3.4
2022-08-19T08:00:25.819Z,4.3
2022-08-19T08:05:30.166Z,4.8
2022-08-19T08:10:33.727Z,4.3
2022-08-19T08:15:42.103Z,5.6
2022-08-19T08:20:42.803Z,4.6
2022-08-19T08:25:46.363Z,4
2022-08-19T08:30:50.959Z,4.9
2022-08-19T08:35:55.426Z,6
2022-08-19T08:40:59.956Z,6
2022-08-19T08:46:03.523Z,5.9
2022-08-19T08:51:08.070Z,5.4
2022-08-19T08:56:12.579Z,4.7
2022-08-19T09:01:16.173Z,5.2
2022-08-19T09:06:20.655Z,7.1
2022-08-19T09:11:42.880Z,7.2
2022-08-19T09:16:28.759Z,7.3
2022-08-19T09:21:34.354Z,8
2022-08-19T09:26:47.522Z,7.9
2022-08-19T09:31:41.379Z,7.8
2022-08-19T09:36:45.945Z,8.2
2022-08-19T09:41:49.499Z,9
2022-08-19T09:46:54.039Z,9.6
2022-08-19T09:51:58.593Z,8.6
2022-08-19T09:57:04.671Z,8.9
2022-08-19T10:02:11.037Z,8.6
2022-08-19T10:07:11.175Z,8.7
2022-08-19T10:12:14.756Z,7.9
2022-08-19T10:17:22.206Z,8
2022-08-19T10:22:23.842Z,8
2022-08-19T10:27:28.378Z,8.1
2022-08-19T10:32:34.391Z,7.7
2022-08-19T10:37:36.434Z,9.1
2022-08-19T10:42:40.969Z,8.6
2022-08-19T10:47:44.538Z,7.9
2022-08-19T10:52:50.636Z,9
2022-08-19T10:58:02.123Z,8.9
2022-08-19T11:02:57.190Z,8.1
2022-08-19T11:08:01.713Z,7.9
2022-08-19T11:13:06.231Z,8.3
2022-08-19T11:18:13.344Z,8.5
2022-08-19T11:23:14.360Z,7.9
2022-08-19T11:28:18.877Z,8.8
2022-08-19T11:33:23.393Z,9.9
2022-08-19T11:38:26.978Z,9.7
2022-08-19T11:43:35.498Z,9.7
2022-08-19T11:48:36.020Z,10.4
2022-08-19T11:53:39.615Z,11.2
2022-08-19T11:58:44.145Z,11.3
2022-08-19T12:03:48.796Z,11.5
2022-08-19T12:08:52.219Z,10.1
2022-08-19T12:13:56.774Z,9.8
2022-08-19T12:19:01.294Z,10.5
2022-08-19T12:24:04.868Z,10.5
2022-08-19T12:29:09.383Z,11
2022-08-19T12:34:13.946Z,10.3
2022-08-19T12:39:18.492Z,9
2022-08-19T12:44:31.868Z,10
2022-08-19T12:49:52.048Z,11
2022-08-19T12:54:31.090Z,9.9
2022-08-19T12:59:34.681Z,11.2
2022-08-19T13:04:39.180Z,10.8
2022-08-19T13:09:43.751Z,11.2
2022-08-19T13:14:47.293Z,10
2022-08-19T13:19:51.820Z,11.4
2022-08-19T13:24:56.378Z,11.6
2022-08-19T13:29:59.920Z,11.8
2022-08-19T13:35:04.482Z,11.5
2022-08-19T13:40:09.102Z,11.5
2022-08-19T13:45:13.515Z,11.9
2022-08-19T13:50:17.064Z,11.3
2022-08-19T13:55:24.879Z,10.8
2022-08-19T14:00:25.271Z,12
2022-08-19T14:05:29.730Z,11.3
2022-08-19T14:10:33.271Z,12
2022-08-19T14:15:37.840Z,11.6
2022-08-19T14:20:42.396Z,11.8
2022-08-19T14:25:46.900Z,10.8
2022-08-19T14:30:50.453Z,11.5
2022-08-19T14:35:59.547Z,11.8
2022-08-19T14:40:59.538Z,11.7
2022-08-19T14:46:03.173Z,11.1
2022-08-19T14:51:07.640Z,11.4
2022-08-19T14:56:12.185Z,12.1
2022-08-19T15:01:15.761Z,12
2022-08-19T15:06:20.265Z,11.3
2022-08-19T15:11:24.787Z,11.7
2022-08-19T15:16:28.337Z,11.5
2022-08-19T15:21:32.864Z,11.5
2022-08-19T15:26:37.411Z,12
2022-08-19T15:31:41.925Z,11.6
2022-08-19T15:36:45.488Z,11.9
2022-08-19T15:41:50.006Z,11.6
2022-08-19T15:46:54.577Z,11.5
2022-08-19T15:51:58.098Z,11.2
2022-08-19T15:57:02.642Z,10.9
2022-08-19T16:02:07.541Z,11
2022-08-19T16:07:10.734Z,10.9
2022-08-19T16:12:15.300Z,11.1
2022-08-19T16:17:19.803Z,11.3
2022-08-19T16:22:23.378Z,11.2
2022-08-19T16:27:27.925Z,11
2022-08-19T16:32:32.448Z,10.9
2022-08-19T16:37:37.016Z,10.9
2022-08-19T16:42:40.494Z,10.8
2022-08-19T16:47:45.076Z,10.9
2022-08-19T16:52:49.618Z,10.3
2022-08-19T16:57:53.313Z,9.9
2022-08-19T17:02:57.701Z,10.3
2022-08-19T17:08:02.208Z,9.8
2022-08-19T17:13:05.792Z,9.3
2022-08-19T17:18:10.286Z,9.1
2022-08-19T17:23:14.863Z,8.7
2022-08-19T17:28:18.385Z,8.5
2022-08-19T17:33:22.921Z,8.3
2022-08-19T17:38:27.546Z,8
2022-08-19T17:43:33.361Z,7.8
2022-08-19T17:48:35.537Z,7.7
2022-08-19T17:53:40.081Z,7.6
2022-08-19T17:58:45.094Z,7.4
2022-08-19T18:03:48.178Z,7.3
2022-08-19T18:08:51.695Z,7.2
2022-08-19T18:13:56.267Z,6.9
2022-08-19T18:19:00.787Z,6.7
2022-08-19T18:24:05.363Z,6.4
2022-08-19T18:29:08.856Z,6.2
2022-08-19T18:34:13.412Z,6.1
2022-08-19T18:39:17.957Z,6
2022-08-19T18:44:21.485Z,5.8
2022-08-19T18:49:26.046Z,5.7
2022-08-19T18:54:30.555Z,5.6
2022-08-19T18:59:34.142Z,5.4
2022-08-19T19:04:38.659Z,5.3
2022-08-19T19:09:43.187Z,5.3
2022-08-19T19:14:49.479Z,5.2
2022-08-19T19:19:51.266Z,5
2022-08-19T19:24:55.769Z,4.9
2022-08-19T19:30:00.328Z,4.8
2022-08-19T19:35:03.850Z,4.7
2022-08-19T19:40:08.436Z,4.6
2022-08-19T19:45:12.942Z,4.4
2022-08-19T19:50:16.551Z,4.5
2022-08-19T19:55:20.991Z,4.3
2022-08-19T20:00:25.587Z,4.3
2022-08-19T20:05:29.113Z,4.2
2022-08-19T20:10:33.639Z,4.2
2022-08-19T20:15:42.387Z,4.2
2022-08-19T20:20:41.685Z,4.2
2022-08-19T20:25:46.283Z,4.2
2022-08-19T20:30:50.793Z,4.2
2022-08-19T20:35:55.298Z,4
2022-08-19T20:40:58.843Z,4.1
2022-08-19T20:46:03.391Z,4.1
2022-08-19T20:51:07.908Z,4.1
2022-08-19T20:56:11.491Z,4
2022-08-19T21:01:16.034Z,3.8
2022-08-19T21:06:20.529Z,3.7
2022-08-19T21:11:24.082Z,3.5
2022-08-19T21:16:28.631Z,3.4
2022-08-19T21:21:33.202Z,3.2
2022-08-19T21:26:36.739Z,3.2
2022-08-19T21:31:41.277Z,3.1
2022-08-19T21:36:45.806Z,3
2022-08-19T21:41:50.287Z,2.7
2022-08-19T21:46:53.857Z,2.6
2022-08-19T21:51:58.364Z,2.6
2022-08-19T21:57:02.902Z,2.5
2022-08-19T22:02:19.510Z,2.4
2022-08-19T22:07:10.999Z,2.3
2022-08-19T22:12:15.522Z,2.2
2022-08-19T22:17:19.111Z,2.1
2022-08-19T22:22:23.611Z,2
2022-08-19T22:27:27.205Z,2
2022-08-19T22:32:31.722Z,1.9
2022-08-19T22:37:36.243Z,1.9
2022-08-19T22:42:39.774Z,1.8
2022-08-19T22:47:44.340Z,1.8
2022-08-19T22:52:51.840Z,1.7
2022-08-19T22:57:52.426Z,1.7
2022-08-19T23:02:56.925Z,1.6
2022-08-19T23:08:01.476Z,1.6
2022-08-19T23:13:05.039Z,1.7
2022-08-19T23:18:09.558Z,1.7
2022-08-19T23:23:14.085Z,1.6
2022-08-19T23:28:18.636Z,1.4
2022-08-19T23:33:22.196Z,1.2
2022-08-19T23:38:26.705Z,1.2
2022-08-19T23:43:31.239Z,1.4
2022-08-19T23:48:34.821Z,1.5
2022-08-19T23:53:39.332Z,1.4
2022-08-19T23:58:43.884Z,1.3
